createdAt,value
2018-10-06T00:00:55.825Z,11.02
2018-10-06T00:01:55.765Z,11.05
2018-10-06T00:02:55.761Z,10.97
2018-10-06T00:03:55.746Z,11.04
2018-10-06T00:04:55.765Z,11.04
2018-10-06T00:05:55.724Z,11.00
2018-10-06T00:06:55.745Z,10.93
2018-10-06T00:07:55.756Z,10.97
2018-10-06T00:08:55.697Z,10.97
2018-10-06T00:09:55.713Z,10.97
2018-10-06T00:10:55.673Z,10.87
2018-10-06T00:11:55.659Z,10.76
2018-10-06T00:12:55.651Z,10.79
2018-10-06T00:13:55.708Z,10.82
2018-10-06T00:14:55.657Z,10.75
2018-10-06T00:15:55.622Z,10.86
2018-10-06T00:16:55.616Z,10.94
2018-10-06T00:17:55.607Z,10.96
2018-10-06T00:18:55.584Z,10.90
2018-10-06T00:19:55.626Z,10.82
2018-10-06T00:20:55.564Z,10.84
2018-10-06T00:21:55.579Z,10.84
2018-10-06T00:22:55.546Z,10.76
2018-10-06T00:23:55.541Z,10.79
2018-10-06T00:24:55.551Z,10.78
2018-10-06T00:25:55.554Z,10.81
2018-10-06T00:26:55.505Z,10.82
2018-10-06T00:27:55.492Z,10.87
2018-10-06T00:28:55.498Z,10.86
2018-10-06T00:29:55.499Z,10.92
2018-10-06T00:30:55.461Z,11.00
2018-10-06T00:31:55.470Z,10.92
2018-10-06T00:32:55.438Z,10.93
2018-10-06T00:33:55.434Z,10.81
2018-10-06T00:34:55.457Z,10.75
2018-10-06T00:35:55.430Z,10.69
2018-10-06T00:36:55.397Z,10.75
2018-10-06T00:37:55.412Z,10.75
2018-10-06T00:38:55.381Z,10.79
2018-10-06T00:39:55.399Z,10.86
2018-10-06T00:40:55.362Z,10.78
2018-10-06T00:41:55.347Z,10.93
2018-10-06T00:42:55.361Z,10.94
2018-10-06T00:43:55.324Z,10.97
2018-10-06T00:44:55.338Z,10.90
2018-10-06T00:45:55.303Z,10.89
2018-10-06T00:46:55.294Z,10.94
2018-10-06T00:47:55.278Z,10.89
2018-10-06T00:48:55.330Z,10.89
2018-10-06T00:49:55.286Z,10.89
2018-10-06T00:50:55.245Z,10.96
2018-10-06T00:51:55.237Z,10.86
2018-10-06T00:52:55.240Z,10.94
2018-10-06T00:53:55.215Z,10.78
2018-10-06T00:54:55.255Z,10.76
2018-10-06T00:55:55.197Z,10.69
2018-10-06T00:56:55.185Z,10.61
2018-10-06T00:57:55.176Z,10.61
2018-10-06T00:58:55.168Z,10.48
2018-10-06T00:59:55.182Z,10.51
2018-10-06T01:00:55.157Z,10.46
2018-10-06T01:01:55.201Z,10.57
2018-10-06T01:02:55.129Z,10.56
2018-10-06T01:03:55.119Z,10.41
2018-10-06T01:04:55.171Z,10.33
2018-10-06T01:05:55.093Z,10.31
2018-10-06T01:06:55.091Z,10.22
2018-10-06T01:07:55.088Z,10.31
2018-10-06T01:08:55.056Z,10.33
2018-10-06T01:09:55.076Z,10.35
2018-10-06T01:10:55.037Z,10.34
2018-10-06T01:11:55.035Z,10.33
2018-10-06T01:12:55.036Z,10.33
2018-10-06T01:13:55.020Z,10.19
2018-10-06T01:14:55.027Z,10.22
2018-10-06T01:15:54.986Z,10.34
2018-10-06T01:16:54.975Z,10.41
2018-10-06T01:17:54.984Z,10.67
2018-10-06T01:18:54.953Z,10.82
2018-10-06T01:19:54.994Z,10.86
2018-10-06T01:20:54.932Z,10.94
2018-10-06T01:21:54.920Z,10.94
2018-10-06T01:22:54.910Z,10.99
2018-10-06T01:23:54.904Z,10.97
2018-10-06T01:24:54.924Z,11.05
2018-10-06T01:25:54.902Z,11.07
2018-10-06T01:26:54.890Z,11.14
2018-10-06T01:27:54.861Z,11.12
2018-10-06T01:28:54.870Z,11.11
2018-10-06T01:29:54.907Z,11.22
2018-10-06T01:30:54.849Z,11.29
2018-10-06T01:31:54.812Z,11.30
2018-10-06T01:32:54.811Z,11.32
2018-10-06T01:33:54.826Z,11.33
2018-10-06T01:34:54.808Z,11.27
2018-10-06T01:35:54.771Z,11.35
2018-10-06T01:36:54.758Z,11.33
2018-10-06T01:37:54.753Z,11.29
2018-10-06T01:38:54.738Z,11.23
2018-10-06T01:39:54.811Z,11.18
2018-10-06T01:40:54.722Z,11.14
2018-10-06T01:41:54.707Z,11.10
2018-10-06T01:42:54.701Z,11.08
2018-10-06T01:43:54.688Z,11.02
2018-10-06T01:44:54.706Z,11.05
2018-10-06T01:45:54.689Z,11.12
2018-10-06T01:46:54.743Z,11.08
2018-10-06T01:47:54.642Z,11.14
2018-10-06T01:48:54.633Z,11.14
2018-10-06T01:49:54.687Z,11.14
2018-10-06T01:50:54.649Z,11.15
2018-10-06T01:51:54.620Z,11.08
2018-10-06T01:52:54.598Z,11.14
2018-10-06T01:53:54.581Z,11.07
2018-10-06T01:54:54.614Z,11.12
2018-10-06T01:55:54.561Z,11.22
2018-10-06T01:56:54.566Z,11.23
2018-10-06T01:57:54.537Z,11.22
2018-10-06T01:58:54.536Z,11.18
2018-10-06T01:59:54.609Z,11.23
2018-10-06T02:00:54.545Z,11.14
2018-10-06T02:01:54.495Z,11.07
2018-10-06T02:02:54.498Z,11.07
2018-10-06T02:03:54.500Z,10.99
2018-10-06T02:04:54.506Z,11.04
2018-10-06T02:05:54.457Z,10.97
2018-10-06T02:06:54.450Z,10.97
2018-10-06T02:07:54.444Z,10.93
2018-10-06T02:08:54.419Z,10.93
2018-10-06T02:09:54.453Z,10.99
2018-10-06T02:10:54.427Z,10.93
2018-10-06T02:11:54.399Z,10.87
2018-10-06T02:12:54.433Z,10.82
2018-10-06T02:13:54.368Z,10.81
2018-10-06T02:14:54.413Z,10.82
2018-10-06T02:15:54.349Z,10.87
2018-10-06T02:16:54.339Z,10.81
2018-10-06T02:17:54.366Z,10.79
2018-10-06T02:18:54.317Z,10.69
2018-10-06T02:19:54.342Z,10.72
2018-10-06T02:20:54.293Z,10.74
2018-10-06T02:21:54.285Z,10.72
2018-10-06T02:22:54.343Z,10.67
2018-10-06T02:23:55.257Z,10.56
2018-10-06T02:24:54.278Z,10.54
2018-10-06T02:25:54.244Z,10.46
2018-10-06T02:26:54.233Z,10.40
2018-10-06T02:27:54.222Z,10.33
2018-10-06T02:28:54.218Z,10.31
2018-10-06T02:29:54.297Z,10.22
2018-10-06T02:30:54.194Z,10.19
2018-10-06T02:31:54.178Z,10.17
2018-10-06T02:32:54.175Z,10.17
2018-10-06T02:33:54.168Z,10.20
2018-10-06T02:34:54.229Z,10.10
2018-10-06T02:35:54.134Z,10.02
2018-10-06T02:36:54.160Z,10.07
2018-10-06T02:37:54.112Z,9.94
2018-10-06T02:38:54.102Z,9.89
2018-10-06T02:39:54.125Z,9.91
2018-10-06T02:40:54.098Z,9.87
2018-10-06T02:41:54.108Z,9.92
2018-10-06T02:42:54.062Z,9.91
2018-10-06T02:43:54.057Z,9.84
2018-10-06T02:44:54.066Z,9.84
2018-10-06T02:45:54.032Z,9.82
2018-10-06T02:46:54.020Z,9.86
2018-10-06T02:47:54.051Z,9.76
2018-10-06T02:48:53.998Z,9.76
2018-10-06T02:49:54.028Z,9.79
2018-10-06T02:50:53.996Z,9.82
2018-10-06T02:51:53.973Z,9.73
2018-10-06T02:52:53.955Z,9.66
2018-10-06T02:53:53.967Z,9.65
2018-10-06T02:54:53.961Z,9.64
2018-10-06T02:55:53.928Z,9.66
2018-10-06T02:56:53.919Z,9.64
2018-10-06T02:57:53.911Z,9.59
2018-10-06T02:58:53.903Z,9.59
2018-10-06T02:59:53.937Z,9.58
2018-10-06T03:00:53.872Z,9.59
2018-10-06T03:01:53.876Z,9.59
2018-10-06T03:02:53.862Z,9.64
2018-10-06T03:03:53.840Z,9.68
2018-10-06T03:04:53.856Z,9.73
2018-10-06T03:05:53.847Z,9.79
2018-10-06T03:06:53.820Z,9.77
2018-10-06T03:07:53.802Z,9.76
2018-10-06T03:08:53.786Z,9.83
2018-10-06T03:09:53.809Z,9.83
2018-10-06T03:10:53.777Z,9.82
2018-10-06T03:11:53.802Z,9.82
2018-10-06T03:12:53.792Z,9.80
2018-10-06T03:13:53.760Z,9.83
2018-10-06T03:14:53.771Z,9.76
2018-10-06T03:15:53.719Z,9.80
2018-10-06T03:16:53.704Z,9.77
2018-10-06T03:17:53.707Z,9.69
2018-10-06T03:18:53.684Z,9.74
2018-10-06T03:19:53.728Z,9.83
2018-10-06T03:20:53.660Z,9.84
2018-10-06T03:21:53.653Z,9.91
2018-10-06T03:22:53.642Z,10.01
2018-10-06T03:23:53.640Z,10.07
2018-10-06T03:24:53.657Z,10.17
2018-10-06T03:25:53.646Z,10.10
2018-10-06T03:26:53.647Z,10.28
2018-10-06T03:27:53.657Z,10.42
2018-10-06T03:28:53.588Z,10.38
2018-10-06T03:29:53.610Z,10.49
2018-10-06T03:30:53.556Z,10.48
2018-10-06T03:31:53.551Z,10.49
2018-10-06T03:32:53.534Z,10.46
2018-10-06T03:33:53.540Z,10.54
2018-10-06T03:34:53.545Z,10.51
2018-10-06T03:35:53.501Z,10.46
2018-10-06T03:36:53.492Z,10.49
2018-10-06T03:37:53.482Z,10.46
2018-10-06T03:38:53.504Z,10.41
2018-10-06T03:39:53.510Z,10.41
2018-10-06T03:40:53.448Z,10.46
2018-10-06T03:41:53.446Z,10.38
2018-10-06T03:42:53.518Z,10.35
2018-10-06T03:43:53.428Z,10.44
2018-10-06T03:44:53.441Z,10.41
2018-10-06T03:45:53.437Z,10.34
2018-10-06T03:46:53.440Z,10.33
2018-10-06T03:47:53.384Z,10.33
2018-10-06T03:48:53.408Z,10.46
2018-10-06T03:49:53.708Z,10.35
2018-10-06T03:50:53.363Z,10.34
2018-10-06T03:51:53.356Z,10.42
2018-10-06T03:52:53.384Z,10.51
2018-10-06T03:53:53.349Z,10.53
2018-10-06T03:54:53.388Z,10.51
2018-10-06T03:55:53.298Z,10.54
2018-10-06T03:56:53.319Z,10.60
2018-10-06T03:57:53.308Z,10.63
2018-10-06T03:58:53.267Z,10.61
2018-10-06T03:59:53.280Z,10.63
2018-10-06T04:00:53.255Z,10.56
2018-10-06T04:01:53.247Z,10.53
2018-10-06T04:02:53.246Z,10.54
2018-10-06T04:03:53.212Z,10.59
2018-10-06T04:04:53.235Z,10.57
2018-10-06T04:05:53.192Z,10.54
2018-10-06T04:06:53.178Z,10.49
2018-10-06T04:07:53.215Z,10.48
2018-10-06T04:08:53.160Z,10.41
2018-10-06T04:09:53.176Z,10.51
2018-10-06T04:10:53.135Z,10.42
2018-10-06T04:11:53.126Z,10.53
2018-10-06T04:12:53.125Z,10.44
2018-10-06T04:13:53.104Z,10.44
2018-10-06T04:14:53.207Z,10.44
2018-10-06T04:15:53.111Z,10.31
2018-10-06T04:16:53.073Z,10.40
2018-10-06T04:17:53.061Z,10.33
2018-10-06T04:18:53.051Z,10.34
2018-10-06T04:19:53.073Z,10.17
2018-10-06T04:20:53.037Z,10.22
2018-10-06T04:21:53.029Z,10.16
2018-10-06T04:22:53.022Z,10.12
2018-10-06T04:23:53.014Z,10.01
2018-10-06T04:24:53.014Z,10.07
2018-10-06T04:25:52.980Z,10.02
2018-10-06T04:26:52.977Z,9.99
2018-10-06T04:27:52.968Z,9.99
2018-10-06T04:28:52.949Z,9.99
2018-10-06T04:29:52.978Z,10.04
2018-10-06T04:30:52.951Z,10.04
2018-10-06T04:31:52.926Z,10.04
2018-10-06T04:32:52.902Z,10.01
2018-10-06T04:33:52.904Z,10.10
2018-10-06T04:34:52.913Z,10.13
2018-10-06T04:35:52.879Z,10.16
2018-10-06T04:36:52.883Z,10.17
2018-10-06T04:37:52.852Z,10.22
2018-10-06T04:38:52.841Z,10.13
2018-10-06T04:39:52.859Z,10.15
2018-10-06T04:40:52.817Z,10.16
2018-10-06T04:41:52.809Z,10.23
2018-10-06T04:42:52.820Z,10.16
2018-10-06T04:43:52.797Z,10.10
2018-10-06T04:44:52.809Z,10.10
2018-10-06T04:45:52.774Z,10.07
2018-10-06T04:46:52.775Z,10.07
2018-10-06T04:47:52.744Z,10.05
2018-10-06T04:48:52.772Z,10.07
2018-10-06T04:49:52.769Z,9.92
2018-10-06T04:50:52.714Z,9.95
2018-10-06T04:51:52.709Z,9.91
2018-10-06T04:52:52.745Z,9.94
2018-10-06T04:53:52.698Z,9.89
2018-10-06T04:54:52.754Z,9.89
2018-10-06T04:55:52.673Z,9.83
2018-10-06T04:56:52.724Z,9.91
2018-10-06T04:57:52.674Z,9.83
2018-10-06T04:58:52.632Z,9.83
2018-10-06T04:59:52.674Z,9.89
2018-10-06T05:00:52.610Z,9.86
2018-10-06T05:01:52.612Z,9.84
2018-10-06T05:02:52.615Z,9.91
2018-10-06T05:03:52.588Z,9.77
2018-10-06T05:04:53.544Z,9.83
2018-10-06T05:05:52.554Z,9.87
2018-10-06T05:06:52.548Z,9.87
2018-10-06T05:07:52.536Z,9.83
2018-10-06T05:08:52.545Z,9.89
2018-10-06T05:09:52.581Z,9.87
2018-10-06T05:10:52.510Z,9.82
2018-10-06T05:11:52.492Z,9.82
2018-10-06T05:12:52.493Z,9.83
2018-10-06T05:13:52.471Z,9.97
2018-10-06T05:14:52.497Z,9.97
2018-10-06T05:15:52.452Z,9.95
2018-10-06T05:16:52.472Z,9.95
2018-10-06T05:17:52.434Z,9.92
2018-10-06T05:18:52.421Z,9.94
2018-10-06T05:19:52.458Z,9.98
2018-10-06T05:20:52.412Z,9.99
2018-10-06T05:21:52.409Z,10.02
2018-10-06T05:22:52.392Z,10.05
2018-10-06T05:23:52.416Z,10.05
2018-10-06T05:24:52.400Z,10.07
2018-10-06T05:25:52.352Z,9.99
2018-10-06T05:26:52.478Z,9.98
2018-10-06T05:27:52.384Z,9.97
2018-10-06T05:28:52.320Z,9.94
2018-10-06T05:29:52.381Z,9.94
2018-10-06T05:30:52.298Z,9.87
2018-10-06T05:31:52.293Z,9.87
2018-10-06T05:32:52.354Z,9.87
2018-10-06T05:33:52.305Z,9.82
2018-10-06T05:34:52.291Z,9.91
2018-10-06T05:35:52.266Z,9.80
2018-10-06T05:36:52.232Z,9.86
2018-10-06T05:37:52.228Z,9.80
2018-10-06T05:38:52.247Z,9.80
2018-10-06T05:39:52.233Z,9.79
2018-10-06T05:40:52.227Z,9.76
2018-10-06T05:41:52.186Z,9.87
2018-10-06T05:42:52.193Z,9.83
2018-10-06T05:43:52.166Z,9.82
2018-10-06T05:44:52.212Z,9.77
2018-10-06T05:45:52.137Z,9.86
2018-10-06T05:46:52.131Z,9.87
2018-10-06T05:47:52.140Z,9.83
2018-10-06T05:48:52.173Z,9.91
2018-10-06T05:49:52.156Z,9.83
2018-10-06T05:50:52.084Z,9.83
2018-10-06T05:51:52.079Z,9.86
2018-10-06T05:52:52.083Z,9.94
2018-10-06T05:53:52.070Z,9.84
2018-10-06T05:54:52.082Z,9.87
2018-10-06T05:55:52.075Z,9.92
2018-10-06T05:56:52.025Z,9.92
2018-10-06T05:57:52.019Z,9.87
2018-10-06T05:58:52.047Z,9.87
2018-10-06T05:59:52.028Z,9.89
2018-10-06T06:00:51.987Z,9.95
2018-10-06T06:01:51.976Z,9.94
2018-10-06T06:02:51.964Z,9.87
2018-10-06T06:03:52.019Z,9.95
2018-10-06T06:04:51.992Z,9.91
2018-10-06T06:05:51.952Z,9.97
2018-10-06T06:06:51.921Z,9.94
2018-10-06T06:07:51.939Z,9.95
2018-10-06T06:08:51.895Z,9.94
2018-10-06T06:09:52.022Z,9.94
2018-10-06T06:10:51.895Z,9.91
2018-10-06T06:11:51.907Z,9.92
2018-10-06T06:12:51.885Z,10.05
2018-10-06T06:13:51.878Z,10.07
2018-10-06T06:14:51.867Z,10.04
2018-10-06T06:15:51.826Z,10.16
2018-10-06T06:16:51.814Z,10.23
2018-10-06T06:17:51.812Z,10.22
2018-10-06T06:18:51.812Z,10.13
2018-10-06T06:19:51.861Z,10.12
2018-10-06T06:20:51.817Z,10.26
2018-10-06T06:21:51.763Z,10.23
2018-10-06T06:22:51.787Z,10.33
2018-10-06T06:23:51.794Z,10.28
2018-10-06T06:24:51.794Z,10.30
2018-10-06T06:25:51.759Z,10.41
2018-10-06T06:26:51.777Z,10.42
2018-10-06T06:27:51.698Z,10.49
2018-10-06T06:28:51.693Z,10.54
2018-10-06T06:29:51.740Z,10.46
2018-10-06T06:30:51.747Z,10.60
2018-10-06T06:31:51.684Z,10.71
2018-10-06T06:32:51.665Z,10.71
2018-10-06T06:33:51.671Z,10.71
2018-10-06T06:34:51.663Z,10.82
2018-10-06T06:35:51.633Z,10.81
2018-10-06T06:36:51.616Z,10.86
2018-10-06T06:37:51.592Z,10.87
2018-10-06T06:38:51.589Z,10.93
2018-10-06T06:39:51.605Z,10.92
2018-10-06T06:40:51.569Z,11.04
2018-10-06T06:41:51.554Z,10.96
2018-10-06T06:42:51.564Z,11.07
2018-10-06T06:43:51.558Z,10.97
2018-10-06T06:44:51.551Z,11.15
2018-10-06T06:45:51.518Z,11.14
2018-10-06T06:46:51.498Z,11.23
2018-10-06T06:47:51.508Z,11.22
2018-10-06T06:48:51.487Z,11.23
2018-10-06T06:49:51.522Z,11.27
2018-10-06T06:50:51.473Z,11.29
2018-10-06T06:51:51.446Z,11.30
2018-10-06T06:52:51.440Z,11.26
2018-10-06T06:53:51.421Z,11.37
2018-10-06T06:54:51.478Z,11.41
2018-10-06T06:55:51.402Z,11.37
2018-10-06T06:56:51.421Z,11.44
2018-10-06T06:57:51.413Z,11.44
2018-10-06T06:58:51.402Z,11.45
2018-10-06T06:59:51.394Z,11.55
2018-10-06T07:00:51.362Z,11.60
2018-10-06T07:01:51.385Z,11.65
2018-10-06T07:02:51.376Z,11.68
2018-10-06T07:03:51.327Z,11.73
2018-10-06T07:04:51.363Z,11.69
2018-10-06T07:05:51.376Z,11.72
2018-10-06T07:06:51.288Z,11.86
2018-10-06T07:07:51.293Z,11.81
2018-10-06T07:08:51.271Z,11.84
2018-10-06T07:09:51.307Z,11.73
2018-10-06T07:10:51.252Z,11.84
2018-10-06T07:11:51.233Z,11.91
2018-10-06T07:12:51.233Z,11.94
2018-10-06T07:13:51.258Z,12.02
2018-10-06T07:14:51.305Z,12.03
2018-10-06T07:15:51.211Z,12.15
2018-10-06T07:16:51.211Z,12.13
2018-10-06T07:17:51.209Z,12.28
2018-10-06T07:18:51.167Z,12.24
2018-10-06T07:19:51.215Z,12.29
2018-10-06T07:20:51.161Z,12.29
2018-10-06T07:21:51.135Z,12.39
2018-10-06T07:22:51.901Z,12.45
2018-10-06T07:23:51.397Z,12.40
2018-10-06T07:24:51.136Z,12.47
2018-10-06T07:25:51.114Z,12.49
2018-10-06T07:26:51.094Z,12.42
2018-10-06T07:27:51.083Z,12.42
2018-10-06T07:28:51.551Z,12.57
2018-10-06T07:29:51.072Z,12.58
2018-10-06T07:30:51.049Z,12.68
2018-10-06T07:31:51.047Z,12.57
2018-10-06T07:32:51.025Z,12.72
2018-10-06T07:33:51.006Z,12.61
2018-10-06T07:34:51.005Z,12.68
2018-10-06T07:35:51.011Z,12.72
2018-10-06T07:36:50.970Z,12.72
2018-10-06T07:37:50.961Z,12.85
2018-10-06T07:38:50.947Z,12.75
2018-10-06T07:39:50.944Z,12.70
2018-10-06T07:40:50.969Z,12.82
2018-10-06T07:41:50.940Z,12.79
2018-10-06T07:42:50.943Z,12.78
2018-10-06T07:43:50.936Z,12.85
2018-10-06T07:44:50.938Z,12.83
2018-10-06T07:45:50.916Z,12.93
2018-10-06T07:46:50.863Z,12.94
2018-10-06T07:47:50.856Z,13.01
2018-10-06T07:48:50.841Z,12.97
2018-10-06T07:49:50.847Z,13.08
2018-10-06T07:50:50.852Z,13.09
2018-10-06T07:51:50.812Z,13.12
2018-10-06T07:52:50.799Z,13.23
2018-10-06T07:53:50.792Z,13.19
2018-10-06T07:54:50.781Z,13.28
2018-10-06T07:55:50.837Z,13.31
2018-10-06T07:56:50.950Z,13.23
2018-10-06T07:57:50.760Z,13.38
2018-10-06T07:58:50.746Z,13.46
2018-10-06T07:59:50.757Z,13.49
2018-10-06T08:00:50.790Z,13.54
2018-10-06T08:01:50.703Z,13.59
2018-10-06T08:02:50.693Z,13.67
2018-10-06T08:03:50.692Z,13.72
2018-10-06T08:04:50.758Z,13.71
2018-10-06T08:05:50.811Z,13.75
2018-10-06T08:06:50.651Z,13.85
2018-10-06T08:07:50.655Z,13.87
2018-10-06T08:08:51.012Z,13.92
2018-10-06T08:09:50.649Z,14.03
2018-10-06T08:10:50.637Z,13.99
2018-10-06T08:11:50.595Z,14.03
2018-10-06T08:12:50.593Z,14.05
2018-10-06T08:13:50.615Z,14.03
2018-10-06T08:14:50.573Z,14.17
2018-10-06T08:15:50.662Z,14.26
2018-10-06T08:16:50.562Z,14.29
2018-10-06T08:17:50.556Z,14.29
2018-10-06T08:18:50.575Z,14.30
2018-10-06T08:19:50.511Z,14.29
2018-10-06T08:20:50.539Z,14.43
2018-10-06T08:21:50.505Z,14.53
2018-10-06T08:22:50.488Z,14.51
2018-10-06T08:23:50.545Z,14.51
2018-10-06T08:24:50.473Z,14.58
2018-10-06T08:25:50.484Z,14.55
2018-10-06T08:26:50.448Z,14.53
2018-10-06T08:27:50.427Z,14.66
2018-10-06T08:28:50.424Z,14.72
2018-10-06T08:29:50.444Z,14.69
2018-10-06T08:30:50.443Z,14.85
2018-10-06T08:31:50.383Z,14.81
2018-10-06T08:32:50.429Z,14.84
2018-10-06T08:33:50.434Z,14.94
2018-10-06T08:34:50.362Z,14.97
2018-10-06T08:35:50.385Z,15.02
2018-10-06T08:36:50.338Z,15.10
2018-10-06T08:37:50.374Z,15.04
2018-10-06T08:38:50.328Z,15.09
2018-10-06T08:39:50.316Z,15.19
2018-10-06T08:40:50.364Z,15.22
2018-10-06T08:41:50.296Z,15.19
2018-10-06T08:42:50.508Z,15.29
2018-10-06T08:43:50.279Z,15.22
2018-10-06T08:44:50.245Z,15.25
2018-10-06T08:45:50.279Z,15.29
2018-10-06T08:46:50.230Z,15.33
2018-10-06T08:47:50.215Z,15.44
2018-10-06T08:48:50.213Z,15.47
2018-10-06T08:49:50.266Z,15.62
2018-10-06T08:50:50.251Z,15.52
2018-10-06T08:51:50.173Z,15.52
2018-10-06T08:52:50.184Z,15.64
2018-10-06T08:53:50.152Z,15.70
2018-10-06T08:54:50.147Z,15.70
2018-10-06T08:55:50.315Z,15.75
2018-10-06T08:56:50.120Z,15.82
2018-10-06T08:57:50.109Z,15.83
2018-10-06T08:58:50.099Z,15.83
2018-10-06T08:59:50.086Z,15.91
2018-10-06T09:00:50.488Z,15.92
2018-10-06T09:01:50.067Z,15.95
2018-10-06T09:02:50.057Z,15.98
2018-10-06T09:03:50.047Z,16.00
2018-10-06T09:04:50.041Z,16.05
2018-10-06T09:05:50.054Z,16.02
2018-10-06T09:06:50.018Z,16.02
2018-10-06T09:07:50.027Z,16.05
2018-10-06T09:08:50.019Z,16.13
2018-10-06T09:09:49.980Z,16.20
2018-10-06T09:10:50.056Z,16.21
2018-10-06T09:11:49.972Z,16.26
2018-10-06T09:12:49.953Z,16.31
2018-10-06T09:13:49.946Z,16.32
2018-10-06T09:14:49.945Z,16.41
2018-10-06T09:15:49.945Z,16.49
2018-10-06T09:16:49.970Z,16.51
2018-10-06T09:17:49.972Z,16.65
2018-10-06T09:18:49.898Z,16.66
2018-10-06T09:19:49.876Z,16.71
2018-10-06T09:20:49.874Z,16.86
2018-10-06T09:21:49.865Z,16.86
2018-10-06T09:22:49.896Z,16.94
2018-10-06T09:23:49.857Z,17.06
2018-10-06T09:24:49.834Z,17.02
2018-10-06T09:25:49.812Z,17.11
2018-10-06T09:26:49.804Z,17.06
2018-10-06T09:27:49.791Z,17.09
2018-10-06T09:28:49.874Z,17.16
2018-10-06T09:29:49.772Z,17.22
2018-10-06T09:30:49.761Z,17.33
2018-10-06T09:31:49.750Z,17.36
2018-10-06T09:32:49.752Z,17.29
2018-10-06T09:33:49.730Z,17.33
2018-10-06T09:34:49.771Z,17.30
2018-10-06T09:35:49.707Z,17.36
2018-10-06T09:36:49.699Z,17.36
2018-10-06T09:37:49.691Z,17.48
2018-10-06T09:38:49.685Z,17.48
2018-10-06T09:39:49.668Z,17.52
2018-10-06T09:40:49.702Z,17.46
2018-10-06T09:41:50.064Z,17.54
2018-10-06T09:42:49.746Z,17.49
2018-10-06T09:43:49.629Z,17.51
2018-10-06T09:44:49.666Z,17.51
2018-10-06T09:45:49.634Z,17.52
2018-10-06T09:46:49.593Z,17.52
2018-10-06T09:47:49.618Z,17.54
2018-10-06T09:48:49.571Z,17.60
2018-10-06T09:49:49.587Z,17.63
2018-10-06T09:50:49.583Z,17.70
2018-10-06T09:51:49.544Z,17.60
2018-10-06T09:52:49.533Z,17.70
2018-10-06T09:53:49.591Z,17.83
2018-10-06T09:54:49.506Z,17.83
2018-10-06T09:55:49.496Z,17.89
2018-10-06T09:56:49.517Z,17.94
2018-10-06T09:57:49.476Z,17.97
2018-10-06T09:58:49.464Z,17.97
2018-10-06T09:59:49.462Z,17.95
2018-10-06T10:00:49.465Z,18.04
2018-10-06T10:01:49.504Z,18.03
2018-10-06T10:02:49.420Z,18.03
2018-10-06T10:03:49.417Z,18.13
2018-10-06T10:04:49.615Z,18.07
2018-10-06T10:05:49.455Z,18.05
2018-10-06T10:06:49.405Z,18.26
2018-10-06T10:07:49.436Z,18.28
2018-10-06T10:08:49.368Z,18.20
2018-10-06T10:09:50.014Z,18.34
2018-10-06T10:10:49.337Z,18.33
2018-10-06T10:11:49.361Z,18.35
2018-10-06T10:12:49.438Z,18.33
2018-10-06T10:13:49.330Z,18.33
2018-10-06T10:14:49.295Z,18.37
2018-10-06T10:15:49.315Z,18.29
2018-10-06T10:16:49.366Z,18.40
2018-10-06T10:17:49.581Z,18.49
2018-10-06T10:18:49.275Z,18.49
2018-10-06T10:19:49.237Z,18.47
2018-10-06T10:20:49.244Z,18.55
2018-10-06T10:21:49.321Z,18.58
2018-10-06T10:22:49.289Z,18.62
2018-10-06T10:23:49.274Z,18.71
2018-10-06T10:24:49.183Z,18.71
2018-10-06T10:25:49.174Z,18.80
2018-10-06T10:26:49.211Z,18.84
2018-10-06T10:27:49.185Z,18.93
2018-10-06T10:28:49.243Z,18.89
2018-10-06T10:29:49.167Z,18.96
2018-10-06T10:30:49.211Z,18.98
2018-10-06T10:31:49.206Z,18.99
2018-10-06T10:32:49.132Z,19.07
2018-10-06T10:33:49.100Z,19.04
2018-10-06T10:34:49.079Z,19.14
2018-10-06T10:35:49.075Z,19.18
2018-10-06T10:36:49.097Z,19.19
2018-10-06T10:37:49.083Z,19.19
2018-10-06T10:38:49.034Z,19.21
2018-10-06T10:39:49.067Z,19.22
2018-10-06T10:40:49.029Z,19.22
2018-10-06T10:41:49.005Z,19.29
2018-10-06T10:42:49.036Z,19.24
2018-10-06T10:43:49.097Z,19.31
2018-10-06T10:44:48.973Z,19.33
2018-10-06T10:45:49.018Z,19.30
2018-10-06T10:46:48.964Z,19.33
2018-10-06T10:47:48.978Z,19.36
2018-10-06T10:48:48.970Z,19.45
2018-10-06T10:49:48.918Z,19.55
2018-10-06T10:50:48.961Z,19.52
2018-10-06T10:51:48.971Z,19.62
2018-10-06T10:52:48.923Z,19.71
2018-10-06T10:53:48.897Z,19.69
2018-10-06T10:54:48.912Z,19.81
2018-10-06T10:55:48.857Z,19.74
2018-10-06T10:56:48.896Z,19.77
2018-10-06T10:57:49.024Z,19.84
2018-10-06T10:58:48.831Z,19.95
2018-10-06T10:59:49.005Z,19.91
2018-10-06T11:00:48.807Z,20.03
2018-10-06T11:01:48.810Z,20.07
2018-10-06T11:02:48.827Z,20.13
2018-10-06T11:03:48.810Z,20.31
2018-10-06T11:04:48.831Z,20.60
2018-10-06T11:05:48.756Z,21.09
2018-10-06T11:06:48.820Z,21.76
2018-10-06T11:07:48.777Z,22.50
2018-10-06T11:08:48.723Z,23.31
2018-10-06T11:09:48.756Z,23.87
2018-10-06T11:10:48.704Z,24.01
2018-10-06T11:11:48.727Z,24.06
2018-10-06T11:12:48.703Z,24.18
2018-10-06T11:13:48.675Z,24.54
2018-10-06T11:14:49.462Z,24.77
2018-10-06T11:15:48.645Z,25.23
2018-10-06T11:16:48.635Z,25.66
2018-10-06T11:17:48.653Z,25.62
2018-10-06T11:18:48.615Z,25.84
2018-10-06T11:19:48.606Z,25.96
2018-10-06T11:20:48.601Z,26.21
2018-10-06T11:21:48.617Z,26.41
2018-10-06T11:22:48.620Z,26.71
2018-10-06T11:23:49.437Z,26.80
2018-10-06T11:24:48.648Z,26.77
2018-10-06T11:25:48.539Z,26.81
2018-10-06T11:26:48.552Z,26.70
2018-10-06T11:27:48.578Z,26.77
2018-10-06T11:28:48.555Z,26.68
2018-10-06T11:29:48.500Z,26.60
2018-10-06T11:30:48.496Z,26.56
2018-10-06T11:31:48.529Z,26.68
2018-10-06T11:32:49.129Z,26.85
2018-10-06T11:33:48.483Z,26.95
2018-10-06T11:34:48.506Z,27.20
2018-10-06T11:35:48.444Z,27.47
2018-10-06T11:36:48.431Z,27.52
2018-10-06T11:37:48.987Z,27.86
2018-10-06T11:38:48.435Z,27.98
2018-10-06T11:39:48.396Z,28.10
2018-10-06T11:40:48.409Z,28.19
2018-10-06T11:41:48.385Z,28.37
2018-10-06T11:42:49.440Z,28.48
2018-10-06T11:43:48.428Z,28.52
2018-10-06T11:44:48.342Z,28.54
2018-10-06T11:45:48.338Z,28.64
2018-10-06T11:46:48.319Z,28.75
2018-10-06T11:47:48.336Z,29.04
2018-10-06T11:48:48.302Z,29.07
2018-10-06T11:49:48.389Z,28.96
2018-10-06T11:50:48.278Z,29.02
2018-10-06T11:51:48.276Z,29.07
2018-10-06T11:52:48.268Z,28.56
2018-10-06T11:53:48.254Z,28.35
2018-10-06T11:54:48.239Z,28.02
2018-10-06T11:55:48.502Z,27.98
2018-10-06T11:56:48.232Z,28.10
2018-10-06T11:57:48.256Z,28.11
2018-10-06T11:58:48.342Z,28.17
2018-10-06T11:59:48.211Z,28.04
2018-10-06T12:00:48.221Z,28.05
2018-10-06T12:01:48.198Z,28.20
2018-10-06T12:02:48.157Z,28.54
2018-10-06T12:03:48.150Z,28.64
2018-10-06T12:04:48.183Z,28.81
2018-10-06T12:05:48.191Z,28.78
2018-10-06T12:06:48.156Z,28.85
2018-10-06T12:07:48.135Z,28.85
2018-10-06T12:08:48.113Z,28.82
2018-10-06T12:09:48.162Z,28.69
2018-10-06T12:10:48.069Z,28.42
2018-10-06T12:11:48.075Z,28.49
2018-10-06T12:12:48.043Z,28.41
2018-10-06T12:13:48.100Z,28.45
2018-10-06T12:14:48.069Z,28.47
2018-10-06T12:15:48.030Z,28.62
2018-10-06T12:16:48.014Z,28.52
2018-10-06T12:17:48.001Z,28.51
2018-10-06T12:18:47.984Z,28.54
2018-10-06T12:19:48.508Z,28.52
2018-10-06T12:20:47.996Z,28.91
2018-10-06T12:21:47.956Z,28.88
2018-10-06T12:22:47.941Z,28.98
2018-10-06T12:23:47.932Z,28.96
2018-10-06T12:24:48.094Z,28.78
2018-10-06T12:25:47.934Z,29.02
2018-10-06T12:26:47.951Z,29.19
2018-10-06T12:27:48.068Z,29.31
2018-10-06T12:28:47.908Z,29.38
2018-10-06T12:29:47.865Z,29.49
2018-10-06T12:30:48.122Z,29.68
2018-10-06T12:31:47.863Z,29.71
2018-10-06T12:32:47.908Z,29.65
2018-10-06T12:33:47.938Z,29.23
2018-10-06T12:34:47.898Z,28.85
2018-10-06T12:35:47.842Z,28.54
2018-10-06T12:36:47.834Z,28.10
2018-10-06T12:37:47.794Z,27.96
2018-10-06T12:38:47.910Z,27.85
2018-10-06T12:39:48.129Z,28.10
2018-10-06T12:40:47.847Z,28.30
2018-10-06T12:41:47.760Z,28.60
2018-10-06T12:42:47.763Z,28.69
2018-10-06T12:43:47.734Z,28.72
2018-10-06T12:44:47.858Z,28.51
2018-10-06T12:45:47.743Z,28.52
2018-10-06T12:46:47.772Z,28.62
2018-10-06T12:47:47.959Z,28.88
2018-10-06T12:48:47.704Z,29.10
2018-10-06T12:49:47.662Z,28.98
2018-10-06T12:50:47.647Z,29.07
2018-10-06T12:51:47.666Z,28.82
2018-10-06T12:52:47.630Z,28.64
2018-10-06T12:53:47.623Z,28.49
2018-10-06T12:54:47.669Z,28.52
2018-10-06T12:55:47.604Z,28.56
2018-10-06T12:56:47.590Z,28.82